Time;durP1;ratioP1;P1;durP2;ratioP2;P2;SDS_P1;SDS_P2;PMS_P1;PMS_P2;Temp;Humidity;BMP_temperature;BMP_pressure;BME280_temperature;BME280_humidity;BME280_pressure;Samples;Min_cycle;Max_cycle;Signal;HPM_P1;HPM_P2
2024/03/25 00:00:20;;;;;;;4.77;3.63;;;;;;;5.67;72.04;98901.81;4937653;29;20269;-62
2024/03/25 00:02:48;;;;;;;4.07;3.43;;;;;;;5.69;71.70;98899.22;4937619;29;20236;-62
2024/03/25 00:05:20;;;;;;;5.27;3.83;;;;;;;5.70;71.69;98899.19;4938060;29;20236;-66
2024/03/25 00:07:47;;;;;;;5.10;3.90;;;;;;;5.70;71.23;98899.19;4934504;29;20225;-61
2024/03/25 00:10:12;;;;;;;5.93;4.43;;;;;;;5.70;71.10;98900.91;4937294;29;20217;-63
2024/03/25 00:12:39;;;;;;;6.40;4.13;;;;;;;5.68;70.97;98900.94;4936361;29;20595;-60
2024/03/25 00:15:07;;;;;;;4.63;3.83;;;;;;;5.68;71.64;98911.16;4936984;29;20210;-63
2024/03/25 00:20:15;;;;;;;6.33;4.63;;;;;;;5.64;70.91;98898.44;5079457;28;20583;-60
2024/03/25 00:22:41;;;;;;;6.30;4.07;;;;;;;5.65;71.07;98900.13;5066626;28;20201;-61
2024/03/25 00:25:08;;;;;;;6.27;4.43;;;;;;;5.61;71.12;98891.66;5074923;28;20213;-60
2024/03/25 00:27:34;;;;;;;8.53;5.00;;;;;;;5.59;71.57;98901.03;5072797;28;20205;-61
2024/03/25 00:30:02;;;;;;;7.90;5.00;;;;;;;5.53;71.57;98896.00;5091629;28;20572;-60
2024/03/25 00:32:28;;;;;;;9.57;5.67;;;;;;;5.53;72.02;98896.84;5061243;28;20205;-60
2024/03/25 00:34:55;;;;;;;9.03;6.00;;;;;;;5.49;71.61;98891.78;5074894;28;20255;-60
2024/03/25 00:37:23;;;;;;;6.73;5.10;;;;;;;5.47;72.51;98896.88;5081146;28;20227;-61
2024/03/25 00:39:50;;;;;;;7.67;5.60;;;;;;;5.48;72.27;98897.72;5080331;28;20271;-61
2024/03/25 00:42:16;;;;;;;10.90;5.80;;;;;;;5.49;72.45;98891.78;5060720;28;20220;-60
2024/03/25 00:44:43;;;;;;;8.00;5.93;;;;;;;5.46;72.32;98889.25;5088837;28;20201;-60
2024/03/25 00:47:09;;;;;;;9.73;6.40;;;;;;;5.42;72.22;98888.44;5073636;28;20666;-61
2024/03/25 00:49:38;;;;;;;9.33;6.40;;;;;;;5.38;71.96;98886.75;5075598;28;20240;-61
2024/03/25 00:52:05;;;;;;;9.63;6.83;;;;;;;5.34;72.74;98900.44;5072153;28;20221;-61
2024/03/25 00:54:33;;;;;;;10.90;6.90;;;;;;;5.32;73.25;98885.09;5073844;28;20254;-60
2024/03/25 00:56:59;;;;;;;10.43;6.83;;;;;;;5.30;73.67;98881.72;5071247;28;20201;-61
2024/03/25 00:59:26;;;;;;;11.60;8.13;;;;;;;5.29;73.44;98882.56;5068320;28;20240;-60
2024/03/25 01:01:52;;;;;;;11.27;7.20;;;;;;;5.28;73.89;98875.78;5063841;28;20205;-61
2024/03/25 01:04:19;;;;;;;10.00;7.00;;;;;;;5.27;73.83;98873.25;5067456;28;20243;-64
2024/03/25 01:06:45;;;;;;;12.20;7.70;;;;;;;5.29;74.15;98877.47;5063776;28;20259;-61
2024/03/25 01:09:12;;;;;;;10.23;7.53;;;;;;;5.28;73.85;98875.78;5068377;28;20585;-63
2024/03/25 01:11:40;;;;;;;11.10;7.93;;;;;;;5.29;74.01;98879.16;5072246;28;20209;-62
2024/03/25 01:14:06;;;;;;;10.60;7.50;;;;;;;5.29;74.24;98874.91;5071756;28;20212;-61
2024/03/25 01:16:33;;;;;;;12.27;7.90;;;;;;;5.25;74.08;98875.81;5072863;28;20228;-61
2024/03/25 01:19:00;;;;;;;12.00;8.40;;;;;;;5.25;74.21;98870.69;5074429;28;20243;-62
2024/03/25 01:21:26;;;;;;;13.60;8.23;;;;;;;5.26;74.68;98866.44;5082389;28;20212;-64
2024/03/25 01:23:53;;;;;;;11.37;8.03;;;;;;;5.24;73.96;98866.44;5072571;28;20673;-62
2024/03/25 01:26:19;;;;;;;12.43;8.07;;;;;;;5.20;74.16;98867.34;5063215;28;20647;-61
2024/03/25 01:28:47;;;;;;;11.00;7.23;;;;;;;5.17;74.88;98866.53;5071913;28;20204;-62
2024/03/25 01:31:13;;;;;;;13.27;8.57;;;;;;;5.14;74.62;98876.75;5064072;28;20197;-63
2024/03/25 01:33:40;;;;;;;12.83;8.60;;;;;;;5.09;74.84;98872.53;5062806;28;20198;-63
2024/03/25 01:36:06;;;;;;;14.47;8.80;;;;;;;5.09;75.05;98875.09;5055480;28;20221;-60
2024/03/25 01:38:33;;;;;;;14.37;8.57;;;;;;;5.09;74.89;98866.59;5057232;28;20226;-62
2024/03/25 01:41:07;;;;;;;13.50;8.73;;;;;;;5.12;74.94;98868.25;5051042;28;20677;-62
2024/03/25 01:43:34;;;;;;;12.93;8.40;;;;;;;5.13;75.26;98864.88;5063199;28;20197;-63
2024/03/25 01:46:05;;;;;;;14.27;8.30;;;;;;;5.18;75.63;98866.50;5052049;28;20217;-61
2024/03/25 01:48:32;;;;;;;11.20;7.73;;;;;;;5.17;74.97;98867.38;5064128;28;20216;-62
2024/03/25 01:50:59;;;;;;;11.90;8.33;;;;;;;5.15;74.84;98863.97;5056004;28;20234;-64
2024/03/25 01:53:27;;;;;;;13.30;7.57;;;;;;;5.14;75.53;98856.34;5059396;28;20205;-62
2024/03/25 01:55:57;;;;;;;12.70;8.57;;;;;;;5.14;75.18;98864.00;5059853;28;20209;-63
2024/03/25 01:58:25;;;;;;;11.93;8.20;;;;;;;5.12;75.01;98855.47;5055927;28;20228;-63
2024/03/25 02:00:53;;;;;;;15.77;9.27;;;;;;;5.09;75.37;98859.78;5055931;28;20611;-63
2024/03/25 02:03:23;;;;;;;11.93;8.70;;;;;;;5.05;75.14;98867.47;5064320;28;20209;-62
2024/03/25 02:05:52;;;;;;;13.87;8.60;;;;;;;5.04;75.48;98866.63;5062721;28;20214;-63
2024/03/25 02:08:20;;;;;;;13.17;8.30;;;;;;;5.02;75.65;98862.41;5065704;28;20198;-63
2024/03/25 02:10:46;;;;;;;13.07;8.37;;;;;;;5.01;75.78;98866.66;5063596;28;20206;-62
2024/03/25 02:13:13;;;;;;;12.93;8.33;;;;;;;5.01;75.52;98855.59;5051008;28;20202;-62
2024/03/25 02:15:41;;;;;;;11.20;8.43;;;;;;;5.00;76.12;98864.94;5053185;28;20238;-59
2024/03/25 02:18:07;;;;;;;14.80;8.70;;;;;;;5.00;75.77;98857.28;5068215;28;20228;-59
2024/03/25 02:20:35;;;;;;;15.23;9.10;;;;;;;4.95;75.38;98860.75;5064254;28;20634;-61
2024/03/25 02:23:03;;;;;;;13.33;8.93;;;;;;;4.90;75.58;98862.47;5063825;28;20279;-60
2024/03/25 02:25:32;;;;;;;13.50;8.90;;;;;;;4.83;75.83;98860.00;5059220;28;20224;-60
2024/03/25 02:28:01;;;;;;;13.23;8.87;;;;;;;4.79;76.46;98865.97;5056049;28;20229;-60
2024/03/25 02:30:27;;;;;;;11.77;8.50;;;;;;;4.79;76.52;98867.69;5057334;28;20652;-60
2024/03/25 02:32:53;;;;;;;14.47;8.43;;;;;;;4.78;76.86;98863.41;5057332;28;20216;-59
2024/03/25 02:35:22;;;;;;;14.43;8.97;;;;;;;4.78;76.69;98868.53;5042559;28;20209;-60
2024/03/25 02:37:51;;;;;;;12.47;8.53;;;;;;;4.76;76.44;98868.53;5066774;28;20664;-59
2024/03/25 02:40:18;;;;;;;14.77;8.57;;;;;;;4.75;76.74;98864.31;5058929;28;20222;-60
2024/03/25 02:42:45;;;;;;;13.27;8.30;;;;;;;4.76;76.84;98866.00;5056944;28;20226;-61
2024/03/25 02:45:15;;;;;;;12.63;8.60;;;;;;;4.78;76.77;98865.97;5069942;28;20206;-60
2024/03/25 02:47:43;;;;;;;11.87;8.30;;;;;;;4.81;76.98;98871.06;5063463;28;20217;-58
2024/03/25 02:50:09;;;;;;;13.17;8.83;;;;;;;4.83;76.57;98867.66;5035506;28;20217;-60
2024/03/25 02:52:37;;;;;;;9.97;7.50;;;;;;;4.83;76.65;98867.66;5063933;28;20198;-62
2024/03/25 02:55:03;;;;;;;12.33;8.07;;;;;;;4.83;76.34;98877.00;5058343;28;20217;-61
2024/03/25 02:57:30;;;;;;;12.33;8.03;;;;;;;4.82;76.66;98871.06;5035692;28;20210;-62
2024/03/25 02:59:56;;;;;;;14.23;8.13;;;;;;;4.85;76.75;98876.13;5057670;28;20233;-59
2024/03/25 03:02:24;;;;;;;12.23;8.07;;;;;;;4.89;77.12;98871.84;5047519;28;20576;-61
2024/03/25 03:04:50;;;;;;;14.47;8.27;;;;;;;4.92;76.83;98874.38;5051087;28;20202;-60
2024/03/25 03:07:17;;;;;;;13.43;8.50;;;;;;;4.97;76.80;98874.31;5047312;28;20575;-61
2024/03/25 03:09:43;;;;;;;12.77;8.30;;;;;;;4.97;76.45;98872.66;5056228;28;20260;-61
2024/03/25 03:12:10;;;;;;;11.90;8.37;;;;;;;5.01;76.33;98884.53;5060597;28;20624;-61
2024/03/25 03:14:36;;;;;;;13.10;8.47;;;;;;;5.01;76.15;98876.03;5062251;28;20212;-61
2024/03/25 03:17:04;;;;;;;12.10;8.30;;;;;;;5.01;76.59;98881.97;5058460;28;20209;-61
2024/03/25 03:19:32;;;;;;;12.37;8.33;;;;;;;4.94;76.64;98875.22;5053714;28;20249;-61
2024/03/25 03:21:59;;;;;;;13.27;8.50;;;;;;;4.99;76.69;98883.69;5053325;28;20679;-60
2024/03/25 03:24:25;;;;;;;10.47;7.50;;;;;;;4.98;76.48;98886.25;5047961;28;20215;-64
2024/03/25 03:26:52;;;;;;;12.97;8.03;;;;;;;5.00;76.33;98884.53;5052034;28;20205;-63
2024/03/25 03:29:18;;;;;;;12.37;8.37;;;;;;;4.99;76.18;98887.94;5054497;28;20690;-63
2024/03/25 03:31:45;;;;;;;13.40;7.80;;;;;;;4.99;76.42;98888.78;5051715;28;20202;-61
2024/03/25 03:34:11;;;;;;;12.40;8.13;;;;;;;5.03;76.44;98884.50;5050263;28;20225;-63
2024/03/25 03:36:40;;;;;;;13.60;8.73;;;;;;;5.04;76.10;98891.28;5058982;28;20209;-63
2024/03/25 03:39:08;;;;;;;13.00;8.47;;;;;;;5.04;76.39;98891.28;5065841;28;20225;-61
2024/03/25 03:41:36;;;;;;;12.87;8.73;;;;;;;5.06;76.42;98894.69;5038297;28;20211;-62
2024/03/25 03:44:02;;;;;;;13.37;8.83;;;;;;;5.05;76.27;98893.00;5050616;28;20217;-63
2024/03/25 03:46:29;;;;;;;12.30;8.30;;;;;;;5.01;76.79;98899.00;5057781;28;20206;-62
2024/03/25 03:48:55;;;;;;;13.97;9.07;;;;;;;4.99;76.41;98903.25;5069675;28;20209;-64
2024/03/25 03:51:22;;;;;;;14.90;9.50;;;;;;;4.99;76.92;98905.81;5061882;28;20275;-63
2024/03/25 03:53:49;;;;;;;13.83;9.20;;;;;;;4.97;76.64;98902.41;5059939;28;20209;-61
2024/03/25 03:56:16;;;;;;;12.93;9.20;;;;;;;5.01;76.87;98916.88;5065914;28;20212;-62
2024/03/25 03:58:42;;;;;;;11.83;7.77;;;;;;;4.98;76.74;98912.63;5053595;28;20835;-62
2024/03/25 04:01:16;;;;;;;13.30;8.77;;;;;;;4.99;77.34;98908.38;5046861;28;20206;-63
2024/03/25 04:03:42;;;;;;;14.30;8.47;;;;;;;4.99;77.24;98914.31;5056520;28;20623;-64
2024/03/25 04:06:11;;;;;;;13.37;8.57;;;;;;;5.00;77.33;98916.00;5049519;28;20255;-64
2024/03/25 04:08:37;;;;;;;12.57;8.13;;;;;;;5.00;76.94;98915.16;5053539;28;20210;-63
2024/03/25 04:11:09;;;;;;;14.27;8.93;;;;;;;4.97;77.12;98916.03;5044318;28;20263;-61
2024/03/25 04:13:36;;;;;;;14.20;8.60;;;;;;;4.93;76.86;98919.44;5057656;28;20219;-63
2024/03/25 04:16:04;;;;;;;12.53;8.27;;;;;;;4.88;77.04;98908.44;5056183;28;20217;-61
2024/03/25 04:18:30;;;;;;;13.53;8.67;;;;;;;4.91;77.53;98905.88;5047037;28;20283;-62
2024/03/25 04:20:58;;;;;;;16.23;9.60;;;;;;;4.92;77.45;98911.81;5049230;28;20236;-63
2024/03/25 04:23:24;;;;;;;13.13;8.03;;;;;;;4.88;77.54;98905.03;5051308;28;20676;-62
2024/03/25 04:25:51;;;;;;;13.97;7.87;;;;;;;4.90;77.04;98906.72;5065468;28;20204;-61
2024/03/25 04:28:19;;;;;;;15.70;8.80;;;;;;;4.89;77.05;98916.94;5057773;28;20209;-63
2024/03/25 04:30:51;;;;;;;12.37;8.07;;;;;;;4.90;77.16;98923.72;5066977;28;20197;-61
2024/03/25 04:33:18;;;;;;;15.87;8.50;;;;;;;4.89;77.06;98914.38;5059088;28;20575;-63
2024/03/25 04:35:48;;;;;;;14.07;8.53;;;;;;;4.87;77.34;98916.13;5052851;28;20952;-59
